Monday, April 21, 2014, 3:45 AM EDT

KJYO, Leesburg / Godfrey

Location: Leesburg, VA, United States Lat: 39.083
Local Time: 3:45 AM EDT ( 7:45 GMT) Lon: -77.567
Time Zone: US/Eastern Elev: 390 ft

Show me the last for .
Show Decoded

2014-04-21 03:15 METAR KJYO 210715Z AUTO 00000KT 10SM CLR 03/02 A3025 RMK AO2 =
2014-04-21 02:55 METAR KJYO 210655Z AUTO 00000KT 10SM CLR 04/02 A3025 RMK AO2 =
2014-04-21 02:35 METAR KJYO 210635Z AUTO 00000KT 10SM CLR 03/03 A3026 RMK AO2 =
2014-04-21 02:15 METAR KJYO 210615Z AUTO 00000KT 10SM CLR 05/03 A3027 RMK AO2 =
2014-04-21 01:55 METAR KJYO 210555Z AUTO 00000KT 10SM CLR 05/03 A3028 RMK AO2 =
2014-04-21 01:35 METAR KJYO 210535Z AUTO 00000KT 10SM CLR 05/03 A3028 RMK AO2 =
2014-04-21 01:15 METAR KJYO 210515Z AUTO 00000KT 10SM CLR 06/03 A3029 RMK AO2 =
2014-04-21 00:55 METAR KJYO 210455Z AUTO 00000KT 10SM CLR 06/03 A3029 RMK AO2 =
2014-04-21 00:35 METAR KJYO 210435Z AUTO 14004KT 10SM CLR 09/03 A3030 RMK AO2 =
2014-04-21 00:15 METAR KJYO 210415Z AUTO 14004KT 10SM CLR 09/03 A3031 RMK AO2 =
2014-04-20 23:55 METAR KJYO 210355Z AUTO 13003KT 10SM CLR 10/03 A3031 RMK AO2 =
2014-04-20 23:35 METAR KJYO 210335Z AUTO 13004KT 10SM CLR 10/03 A3032 RMK AO2 =
2014-04-20 23:15 METAR KJYO 210315Z AUTO 00000KT 10SM CLR 10/03 A3032 RMK AO2 =
2014-04-20 22:55 METAR KJYO 210255Z AUTO 14004KT 10SM CLR 11/03 A3033 RMK AO2 =
2014-04-20 22:35 METAR KJYO 210235Z AUTO 14003KT 10SM CLR 11/03 A3033 RMK AO2 =
2014-04-20 22:15 METAR KJYO 210215Z AUTO 14004KT 10SM CLR 12/03 A3033 RMK AO2 =
2014-04-20 21:55 METAR KJYO 210155Z AUTO 13003KT 10SM CLR 12/03 A3033 RMK AO2 =
2014-04-20 21:35 METAR KJYO 210135Z AUTO 13003KT 10SM CLR 12/04 A3033 RMK AO2 =
2014-04-20 21:15 METAR KJYO 210115Z AUTO 00000KT 10SM CLR 13/04 A3033 RMK AO2 =
2014-04-20 20:55 METAR KJYO 210055Z AUTO 13004KT 10SM CLR 13/04 A3033 RMK AO2 =
2014-04-20 20:35 METAR KJYO 210035Z AUTO 00000KT 10SM CLR 14/03 A3032 RMK AO2 =
2014-04-20 20:15 METAR KJYO 210015Z AUTO 13004KT 10SM CLR 14/03 A3032 RMK AO2 =
2014-04-20 19:55 METAR KJYO 202355Z AUTO 12005KT 10SM CLR 15/03 A3032 RMK AO2 =
2014-04-20 19:35 METAR KJYO 202335Z AUTO 09006KT 10SM CLR 15/03 A3032 RMK AO2 =
2014-04-20 19:15 METAR KJYO 202315Z AUTO 09006KT 10SM CLR 16/02 A3032 RMK AO2 =
2014-04-20 18:55 METAR KJYO 202255Z AUTO 08005KT 10SM CLR 16/02 A3032 RMK AO2 =
2014-04-20 18:35 METAR KJYO 202235Z AUTO 08008KT 10SM CLR 16/02 A3032 RMK AO2 =
2014-04-20 18:15 METAR KJYO 202215Z AUTO 10006KT 10SM CLR 17/02 A3033 RMK AO2 =
2014-04-20 17:55 METAR KJYO 202155Z AUTO 10008KT 10SM CLR 17/02 A3033 RMK AO2 =
2014-04-20 17:35 METAR KJYO 202135Z AUTO 05009KT 10SM CLR 17/02 A3033 RMK AO2 =
2014-04-20 17:15 METAR KJYO 202115Z AUTO 13003G08KT 10SM CLR 17/02 A3034 RMK AO2 =
2014-04-20 16:55 METAR KJYO 202055Z AUTO 06007KT 10SM CLR 17/03 A3034 RMK AO2 =
2014-04-20 16:35 METAR KJYO 202035Z AUTO 12005KT 10SM CLR 17/03 A3034 RMK AO2 =
2014-04-20 16:15 METAR KJYO 202015Z AUTO 12005KT 10SM CLR 16/03 A3035 RMK AO2 =
2014-04-20 15:55 METAR KJYO 201955Z AUTO 04004KT 10SM CLR 16/03 A3035 RMK AO2 =
2014-04-20 15:35 METAR KJYO 201935Z AUTO 07006KT 10SM CLR 16/03 A3036 RMK AO2 =
2014-04-20 15:15 METAR KJYO 201915Z AUTO 04008KT 040V100 10SM CLR 16/03 A3037 RMK AO2 =
2014-04-20 14:55 METAR KJYO 201855Z AUTO 12004KT 10SM CLR 16/03 A3038 RMK AO2 =
2014-04-20 14:35 METAR KJYO 201835Z AUTO 12006KT 10SM CLR 15/03 A3039 RMK AO2 =
2014-04-20 14:15 METAR KJYO 201815Z AUTO 07007KT 10SM CLR 16/04 A3039 RMK AO2 =
2014-04-20 13:55 METAR KJYO 201755Z AUTO 09004KT 10SM CLR 15/03 A3040 RMK AO2 =
2014-04-20 13:35 METAR KJYO 201735Z AUTO 08008KT 10SM CLR 15/03 A3041 RMK AO2 =
2014-04-20 13:15 METAR KJYO 201715Z AUTO 12009KT 10SM CLR 15/03 A3041 RMK AO2 =
2014-04-20 12:55 METAR KJYO 201655Z AUTO 09010KT 070V150 10SM CLR 15/03 A3042 RMK AO2 =
2014-04-20 12:35 METAR KJYO 201635Z AUTO 11007KT 070V130 10SM CLR 15/03 A3043 RMK AO2 =
2014-04-20 12:15 METAR KJYO 201615Z AUTO 12006KT 10SM CLR 15/03 A3044 RMK AO2 =
2014-04-20 11:55 METAR KJYO 201555Z AUTO 09005G14KT 10SM CLR 15/03 A3044 RMK AO2 =
2014-04-20 11:35 METAR KJYO 201535Z AUTO 12006KT 10SM CLR 15/03 A3044 RMK AO2 =
2014-04-20 11:15 METAR KJYO 201515Z AUTO 13006KT 10SM CLR 14/03 A3044 RMK AO2 =
2014-04-20 10:55 METAR KJYO 201455Z AUTO 13003KT 10SM CLR 13/03 A3044 RMK AO2 =
2014-04-20 10:35 METAR KJYO 201435Z AUTO 10010G14KT 050V120 10SM CLR 13/02 A3044 RMK AO2 =
2014-04-20 10:15 METAR KJYO 201415Z AUTO 10006KT 10SM CLR 12/01 A3044 RMK AO2 =
2014-04-20 09:55 METAR KJYO 201355Z AUTO 08007KT 10SM CLR 12/01 A3044 RMK AO2 =
2014-04-20 09:35 METAR KJYO 201335Z AUTO 06005KT 10SM CLR 12/01 A3042 RMK AO2 =
2014-04-20 09:15 METAR KJYO 201315Z AUTO 06005KT 10SM CLR 11/00 A3041 RMK AO2 =
2014-04-20 08:55 METAR KJYO 201255Z AUTO 03004KT 10SM CLR 10/01 A3041 RMK AO2 =
2014-04-20 08:35 METAR KJYO 201235Z AUTO 03004KT 10SM CLR 09/00 A3040 RMK AO2 =
2014-04-20 08:15 METAR KJYO 201215Z AUTO 01005KT 10SM CLR 08/00 A3040 RMK AO2 =
2014-04-20 07:55 METAR KJYO 201155Z AUTO 02004KT 10SM CLR 08/00 A3040 RMK AO2 =
2014-04-20 07:35 METAR KJYO 201135Z AUTO 02007KT 10SM CLR 08/00 A3039 RMK AO2 =
2014-04-20 07:15 METAR KJYO 201115Z AUTO 03008KT 10SM CLR 08/00 A3039 RMK AO2 =
2014-04-20 06:55 METAR KJYO 201055Z AUTO 02006KT 10SM CLR 08/00 A3038 RMK AO2 =
2014-04-20 06:35 METAR KJYO 201035Z AUTO 02006KT 10SM CLR 08/M01 A3037 RMK AO2 =
2014-04-20 06:15 METAR KJYO 201015Z AUTO 02007KT 10SM CLR 08/M01 A3036 RMK AO2 =
2014-04-20 05:55 METAR KJYO 200955Z AUTO 01006KT 10SM CLR 08/M01 A3036 RMK AO2 =
2014-04-20 05:35 METAR KJYO 200935Z AUTO 01008KT 10SM CLR 08/00 A3036 RMK AO2 =
2014-04-20 05:15 METAR KJYO 200915Z AUTO 01005KT 10SM CLR 07/00 A3036 RMK AO2 =
2014-04-20 04:55 METAR KJYO 200855Z AUTO 02004KT 10SM CLR 09/00 A3035 RMK AO2 LTG DSNT S =
2014-04-20 04:35 METAR KJYO 200835Z AUTO 02004KT 10SM CLR 09/00 A3035 RMK AO2 =
2014-04-20 04:15 METAR KJYO 200815Z AUTO 02003KT 10SM CLR 09/00 A3034 RMK AO2 =
2014-04-20 03:55 METAR KJYO 200755Z AUTO 02003KT 10SM CLR 09/00 A3034 RMK AO2 =

Support USWX by starting your Amazon purchase here.